Time;durP1;ratioP1;P1;durP2;ratioP2;P2;SDS_P1;SDS_P2;PMS_P1;PMS_P2;Temp;Humidity;BMP_temperature;BMP_pressure;BME280_temperature;BME280_humidity;BME280_pressure;Samples;Min_cycle;Max_cycle;Signal;HPM_P1;HPM_P2
2022/12/16 00:01:12;;;;;;;29.25;19.20;;;0.40;74.90;;;;;;5024037;28;20023;-92
2022/12/16 00:03:39;;;;;;;28.75;17.10;;;0.40;74.80;;;;;;5029205;28;20025;-91
2022/12/16 00:06:06;;;;;;;28.70;18.77;;;0.40;74.90;;;;;;5018601;28;20021;-91
2022/12/16 00:08:34;;;;;;;26.05;16.85;;;0.40;74.80;;;;;;5035514;28;20407;-91
2022/12/16 00:11:00;;;;;;;26.90;17.58;;;0.50;74.90;;;;;;5049419;28;20029;-91
2022/12/16 00:13:30;;;;;;;28.00;18.75;;;0.50;74.80;;;;;;5035796;28;20025;-90
2022/12/16 00:15:56;;;;;;;26.88;17.20;;;0.50;74.80;;;;;;5052331;28;20029;-90
2022/12/16 00:18:22;;;;;;;31.23;19.52;;;0.60;74.90;;;;;;5035598;28;20025;-88
2022/12/16 00:20:50;;;;;;;29.23;18.95;;;0.50;74.70;;;;;;5036096;28;20024;-88
2022/12/16 00:23:16;;;;;;;31.73;20.48;;;0.60;74.80;;;;;;5033743;28;20395;-90
2022/12/16 00:25:45;;;;;;;30.05;19.83;;;0.60;74.70;;;;;;5032252;28;20104;-90
2022/12/16 00:28:12;;;;;;;27.42;18.88;;;0.60;74.70;;;;;;5048780;28;20036;-90
2022/12/16 00:30:38;;;;;;;29.70;19.42;;;0.70;74.70;;;;;;5032936;28;20021;-90
2022/12/16 00:33:04;;;;;;;29.17;19.48;;;0.70;74.60;;;;;;5035781;28;20021;-90
2022/12/16 00:35:31;;;;;;;26.63;18.63;;;0.60;75.20;;;;;;5050946;28;20391;-89
2022/12/16 00:37:56;;;;;;;25.90;17.67;;;0.70;74.50;;;;;;5032763;28;20443;-89
2022/12/16 00:40:22;;;;;;;31.48;19.88;;;0.70;74.50;;;;;;5050276;28;20029;-87
2022/12/16 00:42:48;;;;;;;28.88;18.70;;;0.80;74.60;;;;;;5036716;28;20021;-90
2022/12/16 00:45:14;;;;;;;28.58;19.70;;;0.80;74.60;;;;;;5040829;28;20383;-87
2022/12/16 00:47:39;;;;;;;25.45;17.60;;;0.80;74.50;;;;;;5038520;28;20108;-86
2022/12/16 00:50:06;;;;;;;24.75;17.17;;;0.80;74.50;;;;;;5036202;28;20025;-88
2022/12/16 00:52:31;;;;;;;25.75;17.88;;;0.80;74.50;;;;;;5039240;28;20263;-88
2022/12/16 00:54:57;;;;;;;22.92;15.02;;;0.90;74.50;;;;;;5036219;28;20087;-88
2022/12/16 00:57:22;;;;;;;26.90;17.27;;;0.90;74.50;;;;;;5033300;28;20048;-88
2022/12/16 00:59:48;;;;;;;23.50;16.70;;;0.90;74.40;;;;;;5036236;28;20013;-88
2022/12/16 01:02:14;;;;;;;27.17;18.38;;;0.90;75.10;;;;;;5035386;28;20029;-87
2022/12/16 01:04:40;;;;;;;24.60;16.42;;;0.90;74.50;;;;;;5030523;28;20044;-88
2022/12/16 01:07:05;;;;;;;21.15;14.13;;;0.90;74.60;;;;;;5036466;28;20020;-88
2022/12/16 01:09:31;;;;;;;27.25;17.52;;;1.00;74.70;;;;;;5033635;28;20128;-87
2022/12/16 01:11:56;;;;;;;26.13;17.33;;;1.00;74.60;;;;;;5033451;28;20077;-86
2022/12/16 01:14:22;;;;;;;30.05;19.65;;;0.90;74.60;;;;;;5034589;28;20032;-88
2022/12/16 01:16:52;;;;;;;32.80;21.52;;;0.90;74.40;;;;;;5035460;28;20021;-87
2022/12/16 01:19:18;;;;;;;29.88;20.25;;;0.90;74.40;;;;;;5036069;28;20071;-88
2022/12/16 01:21:43;;;;;;;29.45;19.92;;;0.90;74.30;;;;;;5034900;28;20013;-86
2022/12/16 01:24:10;;;;;;;27.95;18.30;;;0.90;74.40;;;;;;5029083;28;20489;-86
2022/12/16 01:26:36;;;;;;;32.60;20.60;;;0.90;74.30;;;;;;5036401;28;20055;-87
2022/12/16 01:29:01;;;;;;;27.20;17.70;;;0.90;74.30;;;;;;5034121;28;20546;-88
2022/12/16 01:31:27;;;;;;;27.70;18.15;;;1.00;74.30;;;;;;5036194;28;20032;-89
2022/12/16 01:33:53;;;;;;;25.73;17.38;;;1.00;74.30;;;;;;5032467;28;20036;-89
2022/12/16 01:36:19;;;;;;;25.30;17.35;;;1.00;74.20;;;;;;5035543;28;20033;-88
2022/12/16 01:38:45;;;;;;;26.80;18.23;;;1.10;74.30;;;;;;5036207;28;20045;-89
2022/12/16 01:41:13;;;;;;;24.27;16.70;;;1.10;74.30;;;;;;5032143;28;20104;-89
2022/12/16 01:43:42;;;;;;;25.35;17.25;;;1.20;74.30;;;;;;5052940;28;20515;-88
2022/12/16 01:46:16;;;;;;;28.15;19.75;;;1.10;74.30;;;;;;5034512;28;20025;-88
2022/12/16 01:48:47;;;;;;;28.05;18.92;;;1.10;74.30;;;;;;5035359;28;20021;-87
2022/12/16 01:51:37;;;;;;;32.85;22.48;;;1.10;74.30;;;;;;5033357;28;20032;-88
2022/12/16 01:54:08;;;;;;;30.85;20.42;;;1.10;74.30;;;;;;5024103;28;20040;-89
2022/12/16 01:56:36;;;;;;;32.15;20.83;;;1.00;74.30;;;;;;5046819;28;20020;-87
2022/12/16 01:59:02;;;;;;;29.35;20.42;;;1.00;74.40;;;;;;5032528;28;20021;-87
2022/12/16 02:01:28;;;;;;;31.40;19.30;;;1.10;74.50;;;;;;5037108;28;20031;-88
2022/12/16 02:03:57;;;;;;;26.50;18.25;;;1.10;74.50;;;;;;5035271;28;20024;-87
2022/12/16 02:06:23;;;;;;;27.65;18.83;;;1.10;74.50;;;;;;5053261;28;20056;-88
2022/12/16 02:08:53;;;;;;;25.60;17.88;;;1.20;74.40;;;;;;5035697;28;20059;-87
2022/12/16 02:11:40;;;;;;;25.73;17.25;;;1.30;74.40;;;;;;5034971;28;20116;-88
2022/12/16 02:14:14;;;;;;;23.02;15.88;;;1.30;74.40;;;;;;5034716;28;20025;-87
2022/12/16 02:16:56;;;;;;;26.00;17.30;;;1.40;74.40;;;;;;5028958;28;20027;-89
2022/12/16 02:19:49;;;;;;;25.60;17.27;;;1.40;74.40;;;;;;5035183;28;20072;-87
2022/12/16 02:22:34;;;;;;;;;;;1.50;74.40;;;;;;5020738;28;20178;-86
2022/12/16 02:25:43;;;;;;;21.45;14.48;;;1.50;74.10;;;;;;5050856;28;19909;-87
2022/12/16 02:28:28;;;;;;;23.40;15.63;;;1.50;74.10;;;;;;5030485;28;20020;-86
2022/12/16 02:31:18;;;;;;;24.05;16.20;;;1.50;74.10;;;;;;5031320;28;20063;-87
2022/12/16 02:34:01;;;;;;;27.67;17.95;;;1.50;74.00;;;;;;5040954;28;20033;-88
2022/12/16 02:36:44;;;;;;;25.95;18.48;;;1.50;74.10;;;;;;5035018;28;20031;-87
2022/12/16 02:39:22;;;;;;;25.02;17.30;;;1.50;74.10;;;;;;5043061;28;20026;-87
2022/12/16 02:41:55;;;;;;;26.92;17.90;;;1.50;74.10;;;;;;5028528;28;20055;-87
2022/12/16 02:44:32;;;;;;;26.23;17.83;;;1.50;74.20;;;;;;5028663;28;20079;-87
2022/12/16 02:46:58;;;;;;;27.70;17.13;;;1.50;74.30;;;;;;5034771;28;20051;-86
2022/12/16 02:49:23;;;;;;;24.55;16.67;;;1.60;74.40;;;;;;5033380;28;20042;-87
2022/12/16 02:51:49;;;;;;;27.58;18.52;;;1.80;74.40;;;;;;5053115;28;20491;-88
2022/12/16 02:54:16;;;;;;;25.27;17.63;;;1.60;74.10;;;;;;5032674;28;21244;-87
2022/12/16 02:57:12;;;;;;;24.88;17.08;;;1.60;74.10;;;;;;5029679;28;20020;-87
2022/12/16 02:59:58;;;;;;;26.77;18.30;;;1.60;74.30;;;;;;5028241;28;20167;-87
2022/12/16 03:02:35;;;;;;;28.88;19.27;;;1.70;74.40;;;;;;5026356;28;20021;-88
2022/12/16 03:05:03;;;;;;;25.00;17.45;;;1.60;74.40;;;;;;5050224;28;20029;-88
2022/12/16 03:07:32;;;;;;;26.70;18.15;;;1.70;74.40;;;;;;5032758;28;20033;-88
2022/12/16 03:09:59;;;;;;;24.58;17.33;;;1.70;74.40;;;;;;5047060;28;20025;-88
2022/12/16 03:12:26;;;;;;;26.98;18.50;;;1.70;74.30;;;;;;5029477;28;20090;-87
2022/12/16 03:14:53;;;;;;;24.70;16.48;;;1.70;74.20;;;;;;5023469;28;20029;-88
2022/12/16 03:17:23;;;;;;;28.23;18.13;;;1.70;74.20;;;;;;5032568;28;20261;-87
2022/12/16 03:20:15;;;;;;;25.00;17.90;;;1.70;74.30;;;;;;5037816;28;20044;-88
2022/12/16 03:22:43;;;;;;;;;;;1.70;74.30;;;;;;5023141;28;20023;-88
2022/12/16 03:25:09;;;;;;;23.30;15.73;;;1.70;74.30;;;;;;5029740;28;20490;-88
2022/12/16 03:27:49;;;;;;;24.45;17.42;;;1.70;74.20;;;;;;5033045;28;20228;-88
2022/12/16 03:30:21;;;;;;;27.67;17.05;;;1.70;74.30;;;;;;5025134;28;20296;-89
2022/12/16 03:32:58;;;;;;;23.25;15.75;;;1.70;74.40;;;;;;5026783;28;20064;-88
2022/12/16 03:35:41;;;;;;;22.23;14.88;;;1.70;74.50;;;;;;5032397;28;20025;-87
2022/12/16 03:38:11;;;;;;;24.80;17.38;;;1.70;74.40;;;;;;5031929;28;20025;-88
2022/12/16 03:40:40;;;;;;;25.15;16.52;;;1.70;74.50;;;;;;5035387;28;20083;-87
2022/12/16 03:43:06;;;;;;;24.60;17.27;;;1.60;74.50;;;;;;5035233;28;20108;-87
2022/12/16 03:45:37;;;;;;;26.52;18.02;;;1.60;74.60;;;;;;5042411;28;20533;-87
2022/12/16 03:48:05;;;;;;;33.40;20.23;;;1.50;74.70;;;;;;5029025;28;20025;-88
2022/12/16 03:50:35;;;;;;;30.00;19.17;;;1.50;74.80;;;;;;5033338;28;20032;-87
2022/12/16 03:53:01;;;;;;;32.58;21.63;;;1.50;75.00;;;;;;5026461;28;20025;-87
2022/12/16 03:55:27;;;;;;;31.10;19.58;;;1.40;75.10;;;;;;5047274;28;20121;-87
2022/12/16 03:57:52;;;;;;;33.03;21.63;;;1.40;75.30;;;;;;5030716;28;20026;-87
2022/12/16 04:00:19;;;;;;;33.58;21.27;;;1.30;75.90;;;;;;5028478;28;20028;-88
2022/12/16 04:02:45;;;;;;;34.92;21.20;;;1.30;75.40;;;;;;5049554;28;20525;-87
2022/12/16 04:05:10;;;;;;;34.55;20.60;;;1.30;75.50;;;;;;5033055;28;20111;-87
2022/12/16 04:07:36;;;;;;;35.72;20.40;;;1.30;75.60;;;;;;5025929;28;20124;-87
2022/12/16 04:10:02;;;;;;;37.47;21.63;;;1.30;75.80;;;;;;5037448;28;20435;-88
2022/12/16 04:26:20;;;;;;;30.08;16.75;;;1.30;76.50;;;;;;5046000;28;20067;-88
2022/12/16 04:28:46;;;;;;;28.60;16.80;;;1.30;76.50;;;;;;5023567;28;20052;-88
2022/12/16 04:31:12;;;;;;;26.00;16.35;;;1.30;76.50;;;;;;5025679;28;20049;-88
